sensor_id;sensor_type;location;lat;lon;timestamp;P1;durP1;ratioP1;P2;durP2;ratioP2
6979;SDS011;3530;52.832;10.680;2024-02-04T00:02:35;3.33;;;2.83;;
6979;SDS011;3530;52.832;10.680;2024-02-04T00:05:20;7.03;;;3.08;;
6979;SDS011;3530;52.832;10.680;2024-02-04T00:08:06;4.55;;;3.10;;
6979;SDS011;3530;52.832;10.680;2024-02-04T00:10:52;3.63;;;2.60;;
6979;SDS011;3530;52.832;10.680;2024-02-04T00:13:38;4.95;;;2.75;;
6979;SDS011;3530;52.832;10.680;2024-02-04T00:16:23;8.05;;;3.28;;
6979;SDS011;3530;52.832;10.680;2024-02-04T00:19:09;9.30;;;3.15;;
6979;SDS011;3530;52.832;10.680;2024-02-04T00:21:55;6.97;;;3.30;;
6979;SDS011;3530;52.832;10.680;2024-02-04T00:24:40;3.17;;;2.65;;
6979;SDS011;3530;52.832;10.680;2024-02-04T00:27:26;5.03;;;3.20;;
6979;SDS011;3530;52.832;10.680;2024-02-04T00:30:12;3.83;;;2.72;;
6979;SDS011;3530;52.832;10.680;2024-02-04T00:32:58;5.78;;;2.50;;
6979;SDS011;3530;52.832;10.680;2024-02-04T00:35:48;6.75;;;3.00;;
6979;SDS011;3530;52.832;10.680;2024-02-04T00:38:33;3.90;;;3.03;;
6979;SDS011;3530;52.832;10.680;2024-02-04T00:41:19;4.32;;;3.40;;
6979;SDS011;3530;52.832;10.680;2024-02-04T00:44:05;4.88;;;2.60;;
6979;SDS011;3530;52.832;10.680;2024-02-04T00:46:50;4.00;;;2.65;;
6979;SDS011;3530;52.832;10.680;2024-02-04T00:49:36;6.35;;;3.17;;
6979;SDS011;3530;52.832;10.680;2024-02-04T00:52:22;5.07;;;3.80;;
6979;SDS011;3530;52.832;10.680;2024-02-04T00:55:07;5.82;;;2.83;;
6979;SDS011;3530;52.832;10.680;2024-02-04T00:57:53;6.13;;;3.08;;
6979;SDS011;3530;52.832;10.680;2024-02-04T01:00:40;5.55;;;3.03;;
6979;SDS011;3530;52.832;10.680;2024-02-04T01:03:26;3.17;;;2.78;;
6979;SDS011;3530;52.832;10.680;2024-02-04T01:06:12;8.52;;;3.45;;
6979;SDS011;3530;52.832;10.680;2024-02-04T01:08:57;7.25;;;3.40;;
6979;SDS011;3530;52.832;10.680;2024-02-04T01:11:43;5.53;;;3.20;;
6979;SDS011;3530;52.832;10.680;2024-02-04T01:14:29;3.63;;;3.03;;
6979;SDS011;3530;52.832;10.680;2024-02-04T01:17:14;5.35;;;2.85;;
6979;SDS011;3530;52.832;10.680;2024-02-04T01:20:00;3.70;;;3.30;;
6979;SDS011;3530;52.832;10.680;2024-02-04T01:22:46;3.47;;;3.17;;
6979;SDS011;3530;52.832;10.680;2024-02-04T01:25:31;3.70;;;2.65;;
6979;SDS011;3530;52.832;10.680;2024-02-04T01:28:17;5.15;;;3.53;;
6979;SDS011;3530;52.832;10.680;2024-02-04T01:31:02;5.93;;;2.63;;
6979;SDS011;3530;52.832;10.680;2024-02-04T01:33:48;5.40;;;3.22;;
6979;SDS011;3530;52.832;10.680;2024-02-04T01:36:34;4.15;;;2.90;;
6979;SDS011;3530;52.832;10.680;2024-02-04T01:39:20;5.35;;;3.00;;
6979;SDS011;3530;52.832;10.680;2024-02-04T01:42:05;4.38;;;2.60;;
6979;SDS011;3530;52.832;10.680;2024-02-04T01:44:51;3.28;;;2.85;;
6979;SDS011;3530;52.832;10.680;2024-02-04T01:47:36;5.47;;;3.78;;
6979;SDS011;3530;52.832;10.680;2024-02-04T01:50:22;3.58;;;2.53;;
6979;SDS011;3530;52.832;10.680;2024-02-04T01:53:08;6.30;;;3.15;;
6979;SDS011;3530;52.832;10.680;2024-02-04T01:55:54;6.53;;;3.53;;
6979;SDS011;3530;52.832;10.680;2024-02-04T01:58:42;3.47;;;3.13;;
6979;SDS011;3530;52.832;10.680;2024-02-04T02:01:29;3.80;;;2.83;;
6979;SDS011;3530;52.832;10.680;2024-02-04T02:04:14;4.88;;;3.15;;
6979;SDS011;3530;52.832;10.680;2024-02-04T02:07:00;12.73;;;3.55;;
6979;SDS011;3530;52.832;10.680;2024-02-04T02:09:46;14.40;;;3.55;;
6979;SDS011;3530;52.832;10.680;2024-02-04T02:12:48;5.35;;;3.42;;
6979;SDS011;3530;52.832;10.680;2024-02-04T02:15:40;4.45;;;2.90;;
6979;SDS011;3530;52.832;10.680;2024-02-04T02:18:31;3.08;;;2.88;;
6979;SDS011;3530;52.832;10.680;2024-02-04T02:21:58;6.15;;;2.60;;
6979;SDS011;3530;52.832;10.680;2024-02-04T02:24:38;6.90;;;3.25;;
6979;SDS011;3530;52.832;10.680;2024-02-04T02:27:27;7.88;;;3.22;;
6979;SDS011;3530;52.832;10.680;2024-02-04T02:30:12;5.93;;;2.58;;
6979;SDS011;3530;52.832;10.680;2024-02-04T02:32:58;3.95;;;2.78;;
6979;SDS011;3530;52.832;10.680;2024-02-04T02:35:45;6.35;;;3.22;;
6979;SDS011;3530;52.832;10.680;2024-02-04T02:38:33;3.67;;;3.38;;
6979;SDS011;3530;52.832;10.680;2024-02-04T02:41:23;3.50;;;2.78;;
6979;SDS011;3530;52.832;10.680;2024-02-04T02:44:10;3.10;;;2.83;;
6979;SDS011;3530;52.832;10.680;2024-02-04T02:46:57;9.52;;;3.30;;
6979;SDS011;3530;52.832;10.680;2024-02-04T02:49:42;8.43;;;3.35;;
6979;SDS011;3530;52.832;10.680;2024-02-04T02:52:28;5.38;;;3.00;;
6979;SDS011;3530;52.832;10.680;2024-02-04T02:55:14;3.67;;;3.38;;
6979;SDS011;3530;52.832;10.680;2024-02-04T02:57:59;5.15;;;3.13;;
6979;SDS011;3530;52.832;10.680;2024-02-04T03:00:45;3.28;;;3.08;;
6979;SDS011;3530;52.832;10.680;2024-02-04T03:03:31;8.27;;;3.90;;
6979;SDS011;3530;52.832;10.680;2024-02-04T03:06:16;4.60;;;3.05;;
6979;SDS011;3530;52.832;10.680;2024-02-04T03:09:02;4.15;;;3.72;;
6979;SDS011;3530;52.832;10.680;2024-02-04T03:11:48;6.97;;;3.72;;
6979;SDS011;3530;52.832;10.680;2024-02-04T03:14:33;4.80;;;3.72;;
6979;SDS011;3530;52.832;10.680;2024-02-04T03:17:19;7.35;;;3.65;;
6979;SDS011;3530;52.832;10.680;2024-02-04T03:20:06;6.55;;;3.80;;
6979;SDS011;3530;52.832;10.680;2024-02-04T03:22:52;4.65;;;3.15;;
6979;SDS011;3530;52.832;10.680;2024-02-04T03:25:37;14.93;;;4.57;;
6979;SDS011;3530;52.832;10.680;2024-02-04T03:28:23;6.55;;;3.55;;
6979;SDS011;3530;52.832;10.680;2024-02-04T03:31:09;7.82;;;3.78;;
6979;SDS011;3530;52.832;10.680;2024-02-04T03:33:54;4.45;;;4.03;;
6979;SDS011;3530;52.832;10.680;2024-02-04T03:36:40;3.42;;;3.03;;
6979;SDS011;3530;52.832;10.680;2024-02-04T03:39:25;8.02;;;6.13;;
6979;SDS011;3530;52.832;10.680;2024-02-04T03:42:11;11.20;;;7.50;;
6979;SDS011;3530;52.832;10.680;2024-02-04T03:44:57;11.48;;;6.82;;
6979;SDS011;3530;52.832;10.680;2024-02-04T03:47:42;14.98;;;7.55;;
6979;SDS011;3530;52.832;10.680;2024-02-04T03:50:28;9.45;;;7.40;;
6979;SDS011;3530;52.832;10.680;2024-02-04T03:53:14;12.85;;;8.05;;
6979;SDS011;3530;52.832;10.680;2024-02-04T03:55:59;12.80;;;8.23;;
6979;SDS011;3530;52.832;10.680;2024-02-04T03:58:45;10.38;;;6.75;;
6979;SDS011;3530;52.832;10.680;2024-02-04T04:01:31;13.73;;;8.45;;
6979;SDS011;3530;52.832;10.680;2024-02-04T04:04:17;8.75;;;6.28;;
6979;SDS011;3530;52.832;10.680;2024-02-04T04:07:02;8.45;;;5.68;;
6979;SDS011;3530;52.832;10.680;2024-02-04T04:09:48;9.98;;;7.20;;
6979;SDS011;3530;52.832;10.680;2024-02-04T04:12:33;9.50;;;6.45;;
6979;SDS011;3530;52.832;10.680;2024-02-04T04:15:19;10.15;;;6.90;;
6979;SDS011;3530;52.832;10.680;2024-02-04T04:18:05;15.15;;;7.82;;
6979;SDS011;3530;52.832;10.680;2024-02-04T04:20:51;12.63;;;8.32;;
6979;SDS011;3530;52.832;10.680;2024-02-04T04:23:36;11.55;;;7.03;;
6979;SDS011;3530;52.832;10.680;2024-02-04T04:26:22;15.43;;;6.40;;
6979;SDS011;3530;52.832;10.680;2024-02-04T04:29:07;11.40;;;7.60;;
6979;SDS011;3530;52.832;10.680;2024-02-04T04:31:53;12.80;;;6.65;;
6979;SDS011;3530;52.832;10.680;2024-02-04T04:34:39;9.15;;;5.95;;
6979;SDS011;3530;52.832;10.680;2024-02-04T04:37:24;15.75;;;8.35;;
6979;SDS011;3530;52.832;10.680;2024-02-04T04:40:10;8.85;;;6.07;;
6979;SDS011;3530;52.832;10.680;2024-02-04T04:42:56;9.88;;;6.45;;
6979;SDS011;3530;52.832;10.680;2024-02-04T04:45:42;13.10;;;6.93;;
6979;SDS011;3530;52.832;10.680;2024-02-04T04:48:27;6.88;;;4.72;;
6979;SDS011;3530;52.832;10.680;2024-02-04T04:51:13;8.95;;;6.63;;
6979;SDS011;3530;52.832;10.680;2024-02-04T04:53:59;7.60;;;4.00;;
6979;SDS011;3530;52.832;10.680;2024-02-04T04:56:44;10.38;;;7.10;;
6979;SDS011;3530;52.832;10.680;2024-02-04T04:59:30;7.40;;;4.97;;
6979;SDS011;3530;52.832;10.680;2024-02-04T05:02:16;11.85;;;7.03;;
6979;SDS011;3530;52.832;10.680;2024-02-04T05:05:02;5.15;;;4.07;;
6979;SDS011;3530;52.832;10.680;2024-02-04T05:07:47;10.45;;;5.00;;
6979;SDS011;3530;52.832;10.680;2024-02-04T05:10:33;13.95;;;6.75;;
6979;SDS011;3530;52.832;10.680;2024-02-04T05:13:19;12.75;;;7.30;;
6979;SDS011;3530;52.832;10.680;2024-02-04T05:16:04;12.93;;;8.93;;
6979;SDS011;3530;52.832;10.680;2024-02-04T05:18:50;10.82;;;5.97;;
6979;SDS011;3530;52.832;10.680;2024-02-04T05:21:37;13.90;;;6.47;;
6979;SDS011;3530;52.832;10.680;2024-02-04T05:24:24;9.88;;;6.63;;
6979;SDS011;3530;52.832;10.680;2024-02-04T05:27:10;7.78;;;6.05;;
6979;SDS011;3530;52.832;10.680;2024-02-04T05:29:55;11.02;;;6.00;;
6979;SDS011;3530;52.832;10.680;2024-02-04T05:32:41;8.77;;;6.43;;
6979;SDS011;3530;52.832;10.680;2024-02-04T05:35:27;8.02;;;5.85;;
6979;SDS011;3530;52.832;10.680;2024-02-04T05:38:12;8.73;;;6.22;;
6979;SDS011;3530;52.832;10.680;2024-02-04T05:40:58;5.15;;;4.50;;
6979;SDS011;3530;52.832;10.680;2024-02-04T05:43:43;7.90;;;5.53;;
6979;SDS011;3530;52.832;10.680;2024-02-04T05:46:30;11.85;;;5.45;;
6979;SDS011;3530;52.832;10.680;2024-02-04T05:49:16;8.38;;;5.40;;
6979;SDS011;3530;52.832;10.680;2024-02-04T05:52:02;5.90;;;3.80;;
6979;SDS011;3530;52.832;10.680;2024-02-04T05:54:47;8.98;;;4.60;;
6979;SDS011;3530;52.832;10.680;2024-02-04T05:57:33;4.03;;;3.70;;
6979;SDS011;3530;52.832;10.680;2024-02-04T06:00:19;5.93;;;4.20;;
6979;SDS011;3530;52.832;10.680;2024-02-04T06:03:04;4.68;;;4.28;;
6979;SDS011;3530;52.832;10.680;2024-02-04T06:05:50;6.03;;;4.25;;
6979;SDS011;3530;52.832;10.680;2024-02-04T06:08:36;9.40;;;3.55;;
6979;SDS011;3530;52.832;10.680;2024-02-04T06:11:21;7.40;;;3.85;;
6979;SDS011;3530;52.832;10.680;2024-02-04T06:14:07;7.10;;;4.43;;
6979;SDS011;3530;52.832;10.680;2024-02-04T06:16:53;7.28;;;3.63;;
6979;SDS011;3530;52.832;10.680;2024-02-04T06:19:38;7.10;;;4.07;;
6979;SDS011;3530;52.832;10.680;2024-02-04T06:22:24;9.27;;;4.05;;
6979;SDS011;3530;52.832;10.680;2024-02-04T06:25:10;7.38;;;3.50;;
6979;SDS011;3530;52.832;10.680;2024-02-04T06:27:55;7.55;;;4.10;;
6979;SDS011;3530;52.832;10.680;2024-02-04T06:30:41;14.90;;;4.40;;
6979;SDS011;3530;52.832;10.680;2024-02-04T06:33:26;9.80;;;4.18;;
6979;SDS011;3530;52.832;10.680;2024-02-04T06:36:12;5.57;;;3.80;;
6979;SDS011;3530;52.832;10.680;2024-02-04T06:38:58;7.97;;;4.07;;
6979;SDS011;3530;52.832;10.680;2024-02-04T06:41:43;9.02;;;3.50;;
6979;SDS011;3530;52.832;10.680;2024-02-04T06:44:29;4.20;;;2.45;;
6979;SDS011;3530;52.832;10.680;2024-02-04T06:47:15;4.93;;;3.67;;
6979;SDS011;3530;52.832;10.680;2024-02-04T06:50:00;8.40;;;4.20;;
6979;SDS011;3530;52.832;10.680;2024-02-04T06:52:49;7.15;;;3.08;;
6979;SDS011;3530;52.832;10.680;2024-02-04T06:55:35;7.43;;;3.08;;
6979;SDS011;3530;52.832;10.680;2024-02-04T06:58:21;9.15;;;3.55;;
6979;SDS011;3530;52.832;10.680;2024-02-04T07:01:07;10.48;;;3.45;;
6979;SDS011;3530;52.832;10.680;2024-02-04T07:03:52;6.40;;;3.08;;
6979;SDS011;3530;52.832;10.680;2024-02-04T07:06:38;2.72;;;2.33;;
6979;SDS011;3530;52.832;10.680;2024-02-04T07:09:23;3.30;;;2.80;;
6979;SDS011;3530;52.832;10.680;2024-02-04T07:12:09;5.28;;;3.13;;
6979;SDS011;3530;52.832;10.680;2024-02-04T07:14:55;2.92;;;2.70;;
6979;SDS011;3530;52.832;10.680;2024-02-04T07:17:40;8.45;;;2.95;;
6979;SDS011;3530;52.832;10.680;2024-02-04T07:20:26;4.38;;;2.47;;
6979;SDS011;3530;52.832;10.680;2024-02-04T07:23:12;6.15;;;2.70;;
6979;SDS011;3530;52.832;10.680;2024-02-04T07:25:57;6.65;;;2.83;;
6979;SDS011;3530;52.832;10.680;2024-02-04T07:28:43;6.82;;;2.83;;
6979;SDS011;3530;52.832;10.680;2024-02-04T07:31:29;4.40;;;2.72;;
6979;SDS011;3530;52.832;10.680;2024-02-04T07:34:14;3.03;;;2.75;;
6979;SDS011;3530;52.832;10.680;2024-02-04T07:37:00;4.97;;;2.58;;
6979;SDS011;3530;52.832;10.680;2024-02-04T07:39:46;2.95;;;2.17;;
6979;SDS011;3530;52.832;10.680;2024-02-04T07:42:31;5.25;;;2.75;;
6979;SDS011;3530;52.832;10.680;2024-02-04T07:45:18;5.97;;;2.63;;
6979;SDS011;3530;52.832;10.680;2024-02-04T07:48:03;6.43;;;2.50;;
6979;SDS011;3530;52.832;10.680;2024-02-04T07:50:49;3.60;;;2.45;;
6979;SDS011;3530;52.832;10.680;2024-02-04T07:53:35;4.75;;;2.50;;
6979;SDS011;3530;52.832;10.680;2024-02-04T07:56:21;4.45;;;2.55;;
6979;SDS011;3530;52.832;10.680;2024-02-04T07:59:07;3.08;;;2.03;;
6979;SDS011;3530;52.832;10.680;2024-02-04T08:01:52;3.97;;;2.30;;
6979;SDS011;3530;52.832;10.680;2024-02-04T08:04:41;4.40;;;2.85;;
6979;SDS011;3530;52.832;10.680;2024-02-04T08:07:27;6.68;;;2.83;;
6979;SDS011;3530;52.832;10.680;2024-02-04T08:10:12;3.95;;;2.63;;
6979;SDS011;3530;52.832;10.680;2024-02-04T08:12:58;6.35;;;2.40;;
6979;SDS011;3530;52.832;10.680;2024-02-04T08:15:44;4.72;;;2.72;;
6979;SDS011;3530;52.832;10.680;2024-02-04T08:18:29;3.03;;;2.75;;
6979;SDS011;3530;52.832;10.680;2024-02-04T08:21:15;3.95;;;2.47;;
6979;SDS011;3530;52.832;10.680;2024-02-04T08:24:01;4.30;;;2.30;;
6979;SDS011;3530;52.832;10.680;2024-02-04T08:26:46;4.68;;;2.35;;
6979;SDS011;3530;52.832;10.680;2024-02-04T08:29:32;4.85;;;2.35;;
6979;SDS011;3530;52.832;10.680;2024-02-04T08:32:18;8.35;;;2.78;;
6979;SDS011;3530;52.832;10.680;2024-02-04T08:35:04;6.13;;;3.05;;
6979;SDS011;3530;52.832;10.680;2024-02-04T08:37:50;9.98;;;2.72;;
6979;SDS011;3530;52.832;10.680;2024-02-04T08:40:36;4.82;;;2.95;;
6979;SDS011;3530;52.832;10.680;2024-02-04T08:43:21;5.43;;;2.72;;
6979;SDS011;3530;52.832;10.680;2024-02-04T08:46:07;7.68;;;2.38;;
6979;SDS011;3530;52.832;10.680;2024-02-04T08:48:53;4.88;;;3.00;;
6979;SDS011;3530;52.832;10.680;2024-02-04T08:51:38;2.80;;;2.60;;
6979;SDS011;3530;52.832;10.680;2024-02-04T08:54:24;11.55;;;3.60;;
6979;SDS011;3530;52.832;10.680;2024-02-04T08:57:10;2.65;;;2.45;;
6979;SDS011;3530;52.832;10.680;2024-02-04T08:59:55;4.95;;;2.83;;
6979;SDS011;3530;52.832;10.680;2024-02-04T09:02:41;4.03;;;2.65;;
6979;SDS011;3530;52.832;10.680;2024-02-04T09:05:27;6.45;;;3.28;;
6979;SDS011;3530;52.832;10.680;2024-02-04T09:08:12;3.92;;;3.28;;
6979;SDS011;3530;52.832;10.680;2024-02-04T09:10:58;15.15;;;4.50;;
6979;SDS011;3530;52.832;10.680;2024-02-04T09:13:47;4.45;;;3.15;;
6979;SDS011;3530;52.832;10.680;2024-02-04T09:16:32;9.50;;;3.00;;
6979;SDS011;3530;52.832;10.680;2024-02-04T09:19:18;4.13;;;2.80;;
6979;SDS011;3530;52.832;10.680;2024-02-04T09:22:04;10.55;;;5.53;;
6979;SDS011;3530;52.832;10.680;2024-02-04T09:24:50;18.50;;;9.13;;
6979;SDS011;3530;52.832;10.680;2024-02-04T09:27:35;7.78;;;5.68;;
6979;SDS011;3530;52.832;10.680;2024-02-04T09:30:22;9.50;;;7.15;;
6979;SDS011;3530;52.832;10.680;2024-02-04T09:33:07;12.82;;;7.57;;
6979;SDS011;3530;52.832;10.680;2024-02-04T09:35:53;7.78;;;5.55;;
6979;SDS011;3530;52.832;10.680;2024-02-04T09:38:39;10.15;;;6.05;;
6979;SDS011;3530;52.832;10.680;2024-02-04T09:41:25;7.18;;;3.42;;
6979;SDS011;3530;52.832;10.680;2024-02-04T09:44:12;3.95;;;3.65;;
6979;SDS011;3530;52.832;10.680;2024-02-04T09:46:58;8.15;;;6.25;;
6979;SDS011;3530;52.832;10.680;2024-02-04T09:49:46;6.78;;;5.07;;
6979;SDS011;3530;52.832;10.680;2024-02-04T09:52:32;5.75;;;4.95;;
6979;SDS011;3530;52.832;10.680;2024-02-04T09:55:19;6.03;;;4.40;;
6979;SDS011;3530;52.832;10.680;2024-02-04T09:58:06;5.85;;;3.28;;
6979;SDS011;3530;52.832;10.680;2024-02-04T10:00:52;7.30;;;4.15;;
6979;SDS011;3530;52.832;10.680;2024-02-04T10:03:39;7.25;;;3.55;;
6979;SDS011;3530;52.832;10.680;2024-02-04T10:06:24;4.57;;;4.07;;
6979;SDS011;3530;52.832;10.680;2024-02-04T10:09:10;10.93;;;5.10;;
6979;SDS011;3530;52.832;10.680;2024-02-04T10:11:56;9.55;;;4.78;;
6979;SDS011;3530;52.832;10.680;2024-02-04T10:14:42;6.70;;;4.07;;
6979;SDS011;3530;52.832;10.680;2024-02-04T10:17:28;4.53;;;3.00;;
6979;SDS011;3530;52.832;10.680;2024-02-04T10:20:15;3.95;;;3.55;;
6979;SDS011;3530;52.832;10.680;2024-02-04T10:23:01;6.68;;;3.72;;
6979;SDS011;3530;52.832;10.680;2024-02-04T10:25:47;3.05;;;2.70;;
6979;SDS011;3530;52.832;10.680;2024-02-04T10:28:44;4.13;;;3.75;;
6979;SDS011;3530;52.832;10.680;2024-02-04T10:31:30;6.72;;;4.07;;
6979;SDS011;3530;52.832;10.680;2024-02-04T10:34:15;6.68;;;5.15;;
6979;SDS011;3530;52.832;10.680;2024-02-04T10:37:01;6.78;;;3.55;;
6979;SDS011;3530;52.832;10.680;2024-02-04T10:39:47;2.83;;;2.63;;
6979;SDS011;3530;52.832;10.680;2024-02-04T10:42:32;4.68;;;2.80;;
6979;SDS011;3530;52.832;10.680;2024-02-04T10:45:19;2.35;;;2.25;;
6979;SDS011;3530;52.832;10.680;2024-02-04T10:48:08;5.95;;;2.78;;
6979;SDS011;3530;52.832;10.680;2024-02-04T10:50:55;5.53;;;3.85;;
6979;SDS011;3530;52.832;10.680;2024-02-04T10:53:42;4.57;;;2.78;;
6979;SDS011;3530;52.832;10.680;2024-02-04T10:56:32;2.90;;;2.70;;
6979;SDS011;3530;52.832;10.680;2024-02-04T10:59:22;2.05;;;1.85;;
6979;SDS011;3530;52.832;10.680;2024-02-04T11:02:08;5.43;;;2.83;;
6979;SDS011;3530;52.832;10.680;2024-02-04T11:04:55;4.80;;;2.80;;
6979;SDS011;3530;52.832;10.680;2024-02-04T11:07:40;2.80;;;2.50;;
6979;SDS011;3530;52.832;10.680;2024-02-04T11:10:28;4.82;;;2.92;;
6979;SDS011;3530;52.832;10.680;2024-02-04T11:13:14;7.13;;;2.85;;
6979;SDS011;3530;52.832;10.680;2024-02-04T11:16:01;6.00;;;2.70;;
6979;SDS011;3530;52.832;10.680;2024-02-04T11:22:48;4.88;;;2.92;;
6979;SDS011;3530;52.832;10.680;2024-02-04T11:28:12;5.80;;;2.78;;
6979;SDS011;3530;52.832;10.680;2024-02-04T11:30:58;4.05;;;2.45;;
6979;SDS011;3530;52.832;10.680;2024-02-04T11:33:45;2.08;;;1.90;;
6979;SDS011;3530;52.832;10.680;2024-02-04T11:36:37;2.90;;;2.47;;
6979;SDS011;3530;52.832;10.680;2024-02-04T11:39:23;3.33;;;2.17;;
6979;SDS011;3530;52.832;10.680;2024-02-04T11:42:14;3.30;;;2.42;;
6979;SDS011;3530;52.832;10.680;2024-02-04T11:45:07;6.60;;;2.25;;
6979;SDS011;3530;52.832;10.680;2024-02-04T11:48:02;3.40;;;2.40;;
6979;SDS011;3530;52.832;10.680;2024-02-04T11:50:54;6.93;;;2.85;;
6979;SDS011;3530;52.832;10.680;2024-02-04T11:53:40;3.20;;;1.95;;
6979;SDS011;3530;52.832;10.680;2024-02-04T11:56:25;3.47;;;2.40;;
6979;SDS011;3530;52.832;10.680;2024-02-04T11:59:11;7.15;;;2.75;;
6979;SDS011;3530;52.832;10.680;2024-02-04T12:02:04;2.85;;;2.53;;
6979;SDS011;3530;52.832;10.680;2024-02-04T12:04:51;7.35;;;3.28;;
6979;SDS011;3530;52.832;10.680;2024-02-04T12:07:37;5.78;;;3.08;;
6979;SDS011;3530;52.832;10.680;2024-02-04T12:10:23;9.82;;;3.75;;
6979;SDS011;3530;52.832;10.680;2024-02-04T12:13:09;15.90;;;7.85;;
6979;SDS011;3530;52.832;10.680;2024-02-04T12:15:55;6.43;;;4.13;;
6979;SDS011;3530;52.832;10.680;2024-02-04T12:18:47;12.23;;;4.20;;
6979;SDS011;3530;52.832;10.680;2024-02-04T12:21:36;12.55;;;4.35;;
6979;SDS011;3530;52.832;10.680;2024-02-04T12:24:22;6.20;;;3.92;;
6979;SDS011;3530;52.832;10.680;2024-02-04T12:27:08;5.43;;;3.47;;
6979;SDS011;3530;52.832;10.680;2024-02-04T12:29:53;6.18;;;4.18;;
6979;SDS011;3530;52.832;10.680;2024-02-04T12:32:39;4.88;;;4.13;;
6979;SDS011;3530;52.832;10.680;2024-02-04T12:35:27;7.55;;;3.58;;
6979;SDS011;3530;52.832;10.680;2024-02-04T12:38:15;11.23;;;5.13;;
6979;SDS011;3530;52.832;10.680;2024-02-04T12:41:02;3.05;;;2.85;;
6979;SDS011;3530;52.832;10.680;2024-02-04T12:43:55;3.95;;;3.13;;
6979;SDS011;3530;52.832;10.680;2024-02-04T12:46:40;3.63;;;3.33;;
6979;SDS011;3530;52.832;10.680;2024-02-04T12:49:26;11.43;;;4.65;;
6979;SDS011;3530;52.832;10.680;2024-02-04T12:52:12;7.65;;;3.72;;
6979;SDS011;3530;52.832;10.680;2024-02-04T12:54:57;6.90;;;4.25;;
6979;SDS011;3530;52.832;10.680;2024-02-04T12:57:43;14.35;;;5.00;;
6979;SDS011;3530;52.832;10.680;2024-02-04T13:00:29;17.42;;;5.57;;
6979;SDS011;3530;52.832;10.680;2024-02-04T13:03:15;7.82;;;3.53;;
6979;SDS011;3530;52.832;10.680;2024-02-04T13:06:00;3.10;;;2.80;;
6979;SDS011;3530;52.832;10.680;2024-02-04T13:08:46;8.20;;;3.33;;
6979;SDS011;3530;52.832;10.680;2024-02-04T13:11:32;4.25;;;3.75;;
6979;SDS011;3530;52.832;10.680;2024-02-04T13:14:18;6.72;;;3.92;;
6979;SDS011;3530;52.832;10.680;2024-02-04T13:17:04;11.30;;;4.93;;
6979;SDS011;3530;52.832;10.680;2024-02-04T13:19:50;2.30;;;2.20;;
6979;SDS011;3530;52.832;10.680;2024-02-04T13:22:35;4.25;;;2.45;;
6979;SDS011;3530;52.832;10.680;2024-02-04T13:25:21;5.65;;;3.97;;
6979;SDS011;3530;52.832;10.680;2024-02-04T13:28:07;7.95;;;3.92;;
6979;SDS011;3530;52.832;10.680;2024-02-04T13:30:52;3.03;;;2.38;;
6979;SDS011;3530;52.832;10.680;2024-02-04T13:33:38;4.72;;;3.58;;
6979;SDS011;3530;52.832;10.680;2024-02-04T13:36:24;7.97;;;3.28;;
6979;SDS011;3530;52.832;10.680;2024-02-04T13:39:10;11.45;;;4.53;;
6979;SDS011;3530;52.832;10.680;2024-02-04T13:41:57;3.58;;;2.20;;
6979;SDS011;3530;52.832;10.680;2024-02-04T13:44:43;2.72;;;2.53;;
6979;SDS011;3530;52.832;10.680;2024-02-04T13:47:29;5.30;;;2.72;;
6979;SDS011;3530;52.832;10.680;2024-02-04T13:50:14;5.28;;;2.97;;
6979;SDS011;3530;52.832;10.680;2024-02-04T13:53:00;10.60;;;2.90;;
6979;SDS011;3530;52.832;10.680;2024-02-04T13:55:46;3.83;;;2.55;;
6979;SDS011;3530;52.832;10.680;2024-02-04T13:58:31;4.53;;;2.05;;
6979;SDS011;3530;52.832;10.680;2024-02-04T14:01:17;4.47;;;2.60;;
6979;SDS011;3530;52.832;10.680;2024-02-04T14:04:04;4.93;;;2.83;;
6979;SDS011;3530;52.832;10.680;2024-02-04T14:06:50;6.28;;;2.42;;
6979;SDS011;3530;52.832;10.680;2024-02-04T14:09:35;7.72;;;2.50;;
6979;SDS011;3530;52.832;10.680;2024-02-04T14:12:21;3.83;;;2.50;;
6979;SDS011;3530;52.832;10.680;2024-02-04T14:15:07;2.30;;;2.13;;
6979;SDS011;3530;52.832;10.680;2024-02-04T14:17:52;4.22;;;3.13;;
6979;SDS011;3530;52.832;10.680;2024-02-04T14:20:39;3.70;;;2.40;;
6979;SDS011;3530;52.832;10.680;2024-02-04T14:23:25;2.10;;;2.00;;
6979;SDS011;3530;52.832;10.680;2024-02-04T14:26:20;2.63;;;2.13;;
6979;SDS011;3530;52.832;10.680;2024-02-04T14:29:06;6.85;;;2.80;;
6979;SDS011;3530;52.832;10.680;2024-02-04T14:31:52;2.97;;;2.17;;
6979;SDS011;3530;52.832;10.680;2024-02-04T14:34:37;2.90;;;1.80;;
6979;SDS011;3530;52.832;10.680;2024-02-04T14:37:23;1.85;;;1.75;;
6979;SDS011;3530;52.832;10.680;2024-02-04T14:40:09;6.78;;;2.88;;
6979;SDS011;3530;52.832;10.680;2024-02-04T14:42:55;2.88;;;2.35;;
6979;SDS011;3530;52.832;10.680;2024-02-04T14:45:41;6.75;;;3.25;;
6979;SDS011;3530;52.832;10.680;2024-02-04T14:48:27;2.03;;;1.98;;
6979;SDS011;3530;52.832;10.680;2024-02-04T14:51:13;2.35;;;2.25;;
6979;SDS011;3530;52.832;10.680;2024-02-04T14:53:58;3.03;;;2.60;;
6979;SDS011;3530;52.832;10.680;2024-02-04T14:56:44;3.35;;;2.53;;
6979;SDS011;3530;52.832;10.680;2024-02-04T14:59:31;4.10;;;2.20;;
6979;SDS011;3530;52.832;10.680;2024-02-04T15:02:22;4.13;;;2.40;;
6979;SDS011;3530;52.832;10.680;2024-02-04T15:05:08;2.45;;;1.90;;
6979;SDS011;3530;52.832;10.680;2024-02-04T15:07:54;3.45;;;2.00;;
6979;SDS011;3530;52.832;10.680;2024-02-04T15:10:40;4.25;;;2.38;;
6979;SDS011;3530;52.832;10.680;2024-02-04T15:13:25;3.53;;;2.20;;
6979;SDS011;3530;52.832;10.680;2024-02-04T15:16:11;2.33;;;2.10;;
6979;SDS011;3530;52.832;10.680;2024-02-04T15:18:57;8.23;;;2.13;;
6979;SDS011;3530;52.832;10.680;2024-02-04T15:21:43;3.90;;;2.38;;
6979;SDS011;3530;52.832;10.680;2024-02-04T15:24:29;5.78;;;2.97;;
6979;SDS011;3530;52.832;10.680;2024-02-04T15:27:16;2.45;;;2.15;;
6979;SDS011;3530;52.832;10.680;2024-02-04T15:30:02;7.30;;;2.03;;
6979;SDS011;3530;52.832;10.680;2024-02-04T15:32:49;3.05;;;2.45;;
6979;SDS011;3530;52.832;10.680;2024-02-04T15:35:37;2.28;;;2.00;;
6979;SDS011;3530;52.832;10.680;2024-02-04T15:38:23;4.32;;;2.55;;
6979;SDS011;3530;52.832;10.680;2024-02-04T15:41:08;3.22;;;2.60;;
6979;SDS011;3530;52.832;10.680;2024-02-04T15:43:55;2.58;;;1.98;;
6979;SDS011;3530;52.832;10.680;2024-02-04T15:46:41;5.90;;;2.28;;
6979;SDS011;3530;52.832;10.680;2024-02-04T15:49:27;2.75;;;2.53;;
6979;SDS011;3530;52.832;10.680;2024-02-04T15:52:13;2.92;;;2.03;;
6979;SDS011;3530;52.832;10.680;2024-02-04T15:54:59;4.93;;;2.55;;
6979;SDS011;3530;52.832;10.680;2024-02-04T15:57:48;4.88;;;1.80;;
6979;SDS011;3530;52.832;10.680;2024-02-04T16:00:35;3.50;;;2.38;;
6979;SDS011;3530;52.832;10.680;2024-02-04T16:03:20;2.83;;;2.63;;
6979;SDS011;3530;52.832;10.680;2024-02-04T16:06:07;2.63;;;2.42;;
6979;SDS011;3530;52.832;10.680;2024-02-04T16:08:53;6.63;;;2.83;;
6979;SDS011;3530;52.832;10.680;2024-02-04T16:11:51;4.72;;;2.53;;
6979;SDS011;3530;52.832;10.680;2024-02-04T16:14:39;2.50;;;2.33;;
6979;SDS011;3530;52.832;10.680;2024-02-04T16:17:29;3.28;;;2.63;;
6979;SDS011;3530;52.832;10.680;2024-02-04T16:20:17;7.97;;;2.58;;
6979;SDS011;3530;52.832;10.680;2024-02-04T16:23:04;5.50;;;2.80;;
6979;SDS011;3530;52.832;10.680;2024-02-04T16:25:50;3.45;;;2.85;;
6979;SDS011;3530;52.832;10.680;2024-02-04T16:28:37;2.63;;;2.42;;
6979;SDS011;3530;52.832;10.680;2024-02-04T16:31:23;4.53;;;3.10;;
6979;SDS011;3530;52.832;10.680;2024-02-04T16:34:10;5.97;;;3.42;;
6979;SDS011;3530;52.832;10.680;2024-02-04T16:36:55;6.00;;;3.38;;
6979;SDS011;3530;52.832;10.680;2024-02-04T16:39:41;6.20;;;4.32;;
6979;SDS011;3530;52.832;10.680;2024-02-04T16:42:27;4.60;;;3.42;;
6979;SDS011;3530;52.832;10.680;2024-02-04T16:45:15;2.50;;;2.30;;
6979;SDS011;3530;52.832;10.680;2024-02-04T16:48:01;5.53;;;3.40;;
6979;SDS011;3530;52.832;10.680;2024-02-04T16:50:47;5.97;;;2.60;;
6979;SDS011;3530;52.832;10.680;2024-02-04T16:53:35;4.18;;;2.72;;
6979;SDS011;3530;52.832;10.680;2024-02-04T16:56:21;4.53;;;2.78;;
6979;SDS011;3530;52.832;10.680;2024-02-04T16:59:10;3.88;;;2.42;;
6979;SDS011;3530;52.832;10.680;2024-02-04T17:01:55;5.00;;;2.50;;
6979;SDS011;3530;52.832;10.680;2024-02-04T17:04:41;5.10;;;2.28;;